This is the latest recevied weather packets stored in our database for station/object KQ4KX. If no packets are shown the sender has not sent any weather packets the latest 10 day(s).
| Time | Temp. | Humidity | Pressure | Rain* | Wind** | Luminosity | Snow |
|---|---|---|---|---|---|---|---|
| 1777836569 | 24.44° C | 70% | 1016.7 hPa | 0 mm | - | - | - |
| 1777836269 | 24.44° C | 72% | 1016.9 hPa | 0 mm | - | - | - |
| 1777833809 | 24.44° C | 73% | 1017.3 hPa | 0 mm | - | - | - |
| 1777833148 | 24.44° C | 73% | 1017.5 hPa | 0 mm | - | - | - |
| 1777832818 | 24.44° C | 73% | 1017.5 hPa | 0 mm | - | - | - |
| 1777832518 | 23.89° C | 74% | 1017.6 hPa | 0 mm | - | - | - |
| 1777831888 | 23.89° C | 74% | 1017.6 hPa | 0 mm | - | - | - |
| 1777827418 | 22.78° C | 78% | 1018.3 hPa | 0 mm | - | - | - |
| 1777824569 | 21.67° C | 81% | 1018.6 hPa | 0 mm | - | - | - |
| 1777822318 | 21.11° C | 85% | 1018.5 hPa | 0 mm | - | - | - |
| 1777821988 | 20.56° C | 85% | 1018.7 hPa | 0 mm | - | - | - |
| 1777821688 | 20.56° C | 84% | 1018.6 hPa | 0 mm | - | - | - |
| 1777817548 | 19.44° C | 89% | 1018.1 hPa | 0 mm | - | - | - |
| 1777816648 | 18.89° C | 89% | 1017.9 hPa | 0 mm | - | - | - |
| 1777815358 | 18.89° C | 90% | 1017.6 hPa | 0 mm | - | - | - |
| 1777811578 | 18.33° C | 94% | 1017 hPa | 0 mm | - | - | - |
| 1777811248 | 18.33° C | 94% | 1017.2 hPa | 0 mm | - | - | - |
| 1777810918 | 18.33° C | 94% | 1017 hPa | 0 mm | - | - | - |
| 1777804348 | 17.78° C | 98% | 1016 hPa | 0 mm | - | - | - |
| 1777804048 | 17.78° C | 98% | 1016 hPa | 0 mm | - | - | - |
| 1777803718 | 17.78° C | 98% | 1016 hPa | 0 mm | - | - | - |
| 1777803089 | 17.78° C | 98% | 1015.8 hPa | 0 mm | - | - | - |
| 1777801858 | 17.78° C | 98% | 1015.6 hPa | 0 mm | - | - | - |
| 1777801528 | 17.78° C | 98% | 1015.3 hPa | 0 mm | - | - | - |
| 1777801198 | 17.78° C | 98% | 1015.4 hPa | 0 mm | - | - | - |
* Rain latest hour (hover to see other rain measurements)
** Current wind speed in m/s (hover to see current wind gust speed)